createdAt,value
2022-08-19T00:01:53.812Z,100648.78
2022-08-19T00:03:57.707Z,100642.00
2022-08-19T00:06:01.229Z,100641.31
2022-08-19T00:08:05.365Z,100640.44
2022-08-19T00:10:15.411Z,100648.56
2022-08-19T00:12:20.809Z,100650.53
2022-08-19T00:14:25.919Z,100655.88
2022-08-19T00:16:29.485Z,100663.16
2022-08-19T00:18:33.621Z,100655.28
2022-08-19T00:20:37.550Z,100655.28
2022-08-19T00:22:42.428Z,100655.28
2022-08-19T00:24:49.621Z,100657.13
2022-08-19T00:26:56.301Z,100658.09
2022-08-19T00:29:01.849Z,100654.69
2022-08-19T00:31:06.424Z,100659.19
2022-08-19T00:33:10.157Z,100657.47
2022-08-19T00:35:13.995Z,100653.00
2022-08-19T00:37:17.548Z,100659.19
2022-08-19T00:39:21.302Z,100661.00
2022-08-19T00:41:26.810Z,100663.69
2022-08-19T00:43:30.409Z,100657.47
2022-08-19T00:45:37.134Z,100645.97
2022-08-19T00:47:40.652Z,100658.59
2022-08-19T00:49:51.854Z,100656.91
2022-08-19T00:52:02.767Z,100657.88
2022-08-19T00:54:06.576Z,100659.69
2022-08-19T00:56:10.218Z,100662.47
2022-08-19T00:58:18.585Z,100661.91
2022-08-19T01:00:22.902Z,100653.03
2022-08-19T01:02:29.923Z,100646.03
2022-08-19T01:04:33.424Z,100643.38
2022-08-19T01:06:39.199Z,100642.66
2022-08-19T01:08:42.611Z,100648.94
2022-08-19T01:10:49.289Z,100649.22
2022-08-19T01:12:54.446Z,100656.75
2022-08-19T01:14:58.183Z,100651.53
2022-08-19T01:17:03.805Z,100649.72
2022-08-19T01:19:15.016Z,100655.31
2022-08-19T01:21:31.950Z,100662.59
2022-08-19T01:23:45.788Z,100657.50
2022-08-19T01:25:56.970Z,100666.47
2022-08-19T01:28:09.261Z,100662.25
2022-08-19T01:30:17.529Z,100657.75
2022-08-19T01:32:33.502Z,100662.25
2022-08-19T01:34:37.466Z,100657.88
2022-08-19T01:36:44.049Z,100664.91
2022-08-19T01:38:49.578Z,100661.38
2022-08-19T01:40:53.340Z,100663.22
2022-08-19T01:42:57.344Z,100659.72
2022-08-19T01:45:01.490Z,100660.69
2022-08-19T01:47:05.921Z,100661.66
2022-08-19T01:49:09.638Z,100662.50
2022-08-19T01:51:14.987Z,100658.84
2022-08-19T01:53:18.707Z,100664.06
2022-08-19T01:55:24.931Z,100658.50
2022-08-19T01:57:28.389Z,100664.78
2022-08-19T01:59:32.760Z,100664.78
2022-08-19T02:01:36.102Z,100662.94
2022-08-19T02:03:39.623Z,100662.00
2022-08-19T02:05:44.151Z,100666.22
2022-08-19T02:07:47.615Z,100670.47
2022-08-19T02:09:50.951Z,100660.63
2022-08-19T02:11:55.626Z,100669.22
2022-08-19T02:13:59.674Z,100666.56
2022-08-19T02:16:04.217Z,100669.09
2022-08-19T02:18:10.559Z,100674.44
2022-08-19T02:20:14.535Z,100665.47
2022-08-19T02:22:17.948Z,100673.59
2022-08-19T02:24:21.174Z,100670.06
2022-08-19T02:26:24.555Z,100675.66
2022-08-19T02:28:29.317Z,100673.25
2022-08-19T02:30:33.136Z,100671.81
2022-08-19T02:32:44.412Z,100665.63
2022-08-19T02:34:48.895Z,100662.63
2022-08-19T02:36:52.515Z,100658.41
2022-08-19T02:38:56.360Z,100662.03
2022-08-19T02:41:02.438Z,100652.22
2022-08-19T02:43:07.865Z,100656.72
2022-08-19T02:45:13.407Z,100659.25
2022-08-19T02:47:17.504Z,100645.91
2022-08-19T02:49:21.857Z,100650.28
2022-08-19T02:51:27.699Z,100648.72
2022-08-19T02:53:31.621Z,100644.47
2022-08-19T02:55:45.979Z,100646.31
2022-08-19T02:57:50.554Z,100650.06
2022-08-19T02:59:54.208Z,100645.84
2022-08-19T03:01:59.213Z,100657.59
2022-08-19T03:04:05.437Z,100651.53
2022-08-19T03:06:13.833Z,100656.97
2022-08-19T03:08:17.487Z,100660.75
2022-08-19T03:10:21.484Z,100665.34
2022-08-19T03:12:25.002Z,100668.03
2022-08-19T03:14:29.012Z,100658.34
2022-08-19T03:16:37.829Z,100653.00
2022-08-19T03:18:43.004Z,100653.97
2022-08-19T03:20:48.974Z,100652.28
2022-08-19T03:22:52.684Z,100658.59
2022-08-19T03:24:56.586Z,100658.72
2022-08-19T03:27:00.558Z,100665.84
2022-08-19T03:29:05.650Z,100671.44
2022-08-19T03:31:42.155Z,100665.38
2022-08-19T03:33:37.272Z,100669.16
2022-08-19T03:35:42.332Z,100668.28
2022-08-19T03:37:45.908Z,100672.78
2022-08-19T03:39:49.647Z,100670.22
2022-08-19T03:42:32.110Z,100662.38
2022-08-19T03:44:24.792Z,100661.38
2022-08-19T03:46:30.910Z,100653.50
2022-08-19T03:48:35.878Z,100649.28
2022-08-19T03:50:43.186Z,100655.47
2022-08-19T03:52:51.634Z,100651.09
2022-08-19T03:54:55.308Z,100657.41
2022-08-19T03:57:00.439Z,100657.53
2022-08-19T03:59:05.310Z,100652.19
2022-08-19T04:01:10.801Z,100646.03
2022-08-19T04:03:14.377Z,100651.38
2022-08-19T04:05:18.061Z,100649.66
2022-08-19T04:07:23.200Z,100646.03
2022-08-19T04:09:27.350Z,100656.81
2022-08-19T04:11:43.563Z,100647.97
2022-08-19T04:13:48.109Z,100654.25
2022-08-19T04:15:52.035Z,100655.94
2022-08-19T04:17:55.960Z,100658.63
2022-08-19T04:19:59.742Z,100663.94
2022-08-19T04:22:05.156Z,100660.56
2022-08-19T04:24:12.174Z,100653.66
2022-08-19T04:26:16.905Z,100659.13
2022-08-19T04:28:20.458Z,100657.41
2022-08-19T04:30:24.008Z,100658.25
2022-08-19T04:32:27.648Z,100653.78
2022-08-19T04:34:31.815Z,100655.81
2022-08-19T04:36:38.107Z,100660.31
2022-08-19T04:38:41.662Z,100659.56
2022-08-19T04:41:06.871Z,100659.69
2022-08-19T04:43:15.627Z,100652.66
2022-08-19T04:45:19.294Z,100651.09
2022-08-19T04:47:48.123Z,100664.53
2022-08-19T04:49:50.667Z,100658.38
2022-08-19T04:51:56.255Z,100666.22
2022-08-19T04:54:01.027Z,100667.06
2022-08-19T04:56:10.758Z,100662.59
2022-08-19T04:58:14.469Z,100661.75
2022-08-19T05:00:19.233Z,100660.91
2022-08-19T05:02:24.278Z,100670.72
2022-08-19T05:04:29.936Z,100673.50
2022-08-19T05:06:34.841Z,100670.09
2022-08-19T05:08:42.083Z,100677.25
2022-08-19T05:10:45.673Z,100683.53
2022-08-19T05:12:50.625Z,100674.81
2022-08-19T05:14:54.100Z,100687.41
2022-08-19T05:17:23.665Z,100684.00
2022-08-19T05:19:38.473Z,100686.53
2022-08-19T05:22:01.401Z,100680.38
2022-08-19T05:24:09.577Z,100686.44
2022-08-19T05:26:13.866Z,100674.81
2022-08-19T05:28:18.873Z,100673.00
2022-08-19T05:30:33.527Z,100688.13
2022-08-19T05:32:45.996Z,100691.78
2022-08-19T05:34:50.229Z,100686.53
2022-08-19T05:36:58.205Z,100678.56
2022-08-19T05:39:02.043Z,100683.78
2022-08-19T05:41:09.780Z,100681.34
2022-08-19T05:43:13.268Z,100684.00
2022-08-19T05:45:18.294Z,100688.38
2022-08-19T05:47:22.441Z,100686.53
2022-08-19T05:49:28.128Z,100692.47
2022-08-19T05:51:31.722Z,100694.91
2022-08-19T05:53:35.974Z,100696.47
2022-08-19T05:55:41.388Z,100694.56
2022-08-19T05:57:44.916Z,100698.78
2022-08-19T05:59:52.648Z,100705.78
2022-08-19T06:01:58.524Z,100711.72
2022-08-19T06:04:02.285Z,100712.38
2022-08-19T06:06:06.649Z,100726.16
2022-08-19T06:08:10.329Z,100714.19
2022-08-19T06:10:14.033Z,100708.59
2022-08-19T06:12:17.691Z,100712.72
2022-08-19T06:14:27.728Z,100703.50
2022-08-19T06:16:35.102Z,100706.66
2022-08-19T06:18:40.444Z,100704.94
2022-08-19T06:20:55.401Z,100710.31
2022-08-19T06:23:00.264Z,100713.34
2022-08-19T06:25:05.500Z,100715.94
2022-08-19T06:27:09.192Z,100726.28
2022-08-19T06:29:23.477Z,100736.25
2022-08-19T06:31:30.159Z,100740.56
2022-08-19T06:33:33.727Z,100735.09
2022-08-19T06:35:43.142Z,100747.47
2022-08-19T06:37:46.975Z,100743.50
2022-08-19T06:39:51.661Z,100743.78
2022-08-19T06:41:58.935Z,100743.22
2022-08-19T06:44:07.425Z,100747.59
2022-08-19T06:46:19.791Z,100745.41
2022-08-19T06:48:23.459Z,100744.84
2022-08-19T06:50:30.104Z,100739.34
2022-08-19T06:52:38.469Z,100741.69
2022-08-19T06:54:55.368Z,100746.09
2022-08-19T06:57:03.089Z,100734.00
2022-08-19T06:59:08.681Z,100741.00
2022-08-19T07:01:12.824Z,100736.22
2022-08-19T07:03:16.801Z,100745.78
2022-08-19T07:05:20.682Z,100738.47
2022-08-19T07:07:24.274Z,100742.63
2022-08-19T07:09:29.515Z,100742.97
2022-08-19T07:11:34.966Z,100744.78
2022-08-19T07:13:39.924Z,100749.09
2022-08-19T07:15:44.101Z,100744.19
2022-08-19T07:17:52.650Z,100749.75
2022-08-19T07:19:56.489Z,100742.41
2022-08-19T07:22:03.610Z,100755.03
2022-08-19T07:24:07.893Z,100762.09
2022-08-19T07:26:16.095Z,100764.47
2022-08-19T07:28:24.407Z,100763.38
2022-08-19T07:30:28.607Z,100769.34
2022-08-19T07:32:32.761Z,100767.16
2022-08-19T07:34:38.709Z,100771.25
2022-08-19T07:36:44.780Z,100768.16
2022-08-19T07:38:50.285Z,100763.78
2022-08-19T07:40:55.133Z,100764.78
2022-08-19T07:43:00.333Z,100749.28
2022-08-19T07:45:03.984Z,100760.91
2022-08-19T07:47:07.946Z,100753.03
2022-08-19T07:49:31.801Z,100770.09
2022-08-19T07:51:36.354Z,100764.47
2022-08-19T07:53:40.632Z,100767.34
2022-08-19T07:55:44.226Z,100771.09
2022-08-19T07:57:47.795Z,100778.25
2022-08-19T07:59:52.720Z,100779.38
2022-08-19T08:01:56.384Z,100773.59
2022-08-19T08:04:18.135Z,100776.47
2022-08-19T08:06:39.172Z,100782.59
2022-08-19T08:09:00.120Z,100789.47
2022-08-19T08:11:04.191Z,100799.97
2022-08-19T08:13:11.254Z,100799.06
2022-08-19T08:15:19.683Z,100797.81
2022-08-19T08:17:31.159Z,100792.03
2022-08-19T08:19:51.968Z,100795.91
2022-08-19T08:21:56.545Z,100805.13
2022-08-19T08:26:07.795Z,100787.81
2022-08-19T08:28:17.405Z,100788.09
2022-08-19T08:30:26.382Z,100792.03
2022-08-19T08:32:34.777Z,100805.53
2022-08-19T08:34:39.465Z,100805.00
2022-08-19T08:36:48.614Z,100807.13
2022-08-19T08:41:08.919Z,100805.59
2022-08-19T08:43:24.105Z,100795.91
2022-08-19T08:45:30.419Z,100796.91
2022-08-19T08:47:48.598Z,100808.84
2022-08-19T08:49:58.005Z,100801.09
2022-08-19T08:52:06.610Z,100818.56
2022-08-19T08:54:14.404Z,100811.22
2022-08-19T08:56:18.815Z,100803.88
2022-08-19T08:58:30.414Z,100809.06
2022-08-19T09:00:39.229Z,100807.88
2022-08-19T09:02:43.495Z,100806.81
2022-08-19T09:04:47.863Z,100811.28
2022-08-19T09:07:01.907Z,100805.84
2022-08-19T09:09:32.208Z,100811.22
2022-08-19T09:11:50.047Z,100798.19
2022-08-19T09:14:29.232Z,100804.19
2022-08-19T09:16:35.530Z,100809.31
2022-08-19T09:18:45.638Z,100813.69
2022-08-19T09:20:49.668Z,100807.72
2022-08-19T09:22:53.193Z,100814.31
2022-08-19T09:24:57.666Z,100816.09
2022-08-19T09:27:06.696Z,100790.91
2022-08-19T09:29:22.862Z,100806.56
2022-08-19T09:31:28.593Z,100801.28
2022-08-19T09:33:34.012Z,100802.34
2022-08-19T09:35:53.071Z,100801.59
2022-08-19T09:37:59.851Z,100802.50
2022-08-19T09:40:03.885Z,100794.91
2022-08-19T09:42:16.238Z,100791.81
2022-08-19T09:44:24.433Z,100792.81
2022-08-19T09:46:32.611Z,100794.91
2022-08-19T09:48:38.321Z,100793.78
2022-08-19T09:50:51.652Z,100784.38
2022-08-19T09:52:57.415Z,100793.31
2022-08-19T09:55:01.812Z,100784.31
2022-08-19T09:57:10.937Z,100779.78
2022-08-19T09:59:14.543Z,100803.66
2022-08-19T10:01:21.511Z,100787.69
2022-08-19T10:03:29.854Z,100786.38
2022-08-19T10:05:55.277Z,100791.69
2022-08-19T10:08:02.069Z,100781.38
2022-08-19T10:10:10.428Z,100781.53
2022-08-19T10:12:17.877Z,100783.66
2022-08-19T10:14:24.805Z,100790.78
2022-08-19T10:16:30.186Z,100792.91
2022-08-19T10:18:35.618Z,100786.31
2022-08-19T10:20:43.314Z,100789.31
2022-08-19T10:22:46.977Z,100786.91
2022-08-19T10:24:56.033Z,100787.72
2022-08-19T10:27:00.151Z,100789.03
2022-08-19T10:29:05.469Z,100792.84
2022-08-19T10:31:10.635Z,100790.47
2022-08-19T10:33:15.235Z,100785.00
2022-08-19T10:35:56.609Z,100801.72
2022-08-19T10:38:04.643Z,100795.66
2022-08-19T10:40:11.970Z,100798.50
2022-08-19T10:42:17.263Z,100786.94
2022-08-19T10:44:22.826Z,100801.19
2022-08-19T10:46:28.718Z,100807.41
2022-08-19T10:48:32.342Z,100809.38
2022-08-19T10:50:52.448Z,100804.31
2022-08-19T10:52:56.358Z,100818.28
2022-08-19T10:55:18.758Z,100818.41
2022-08-19T10:57:27.920Z,100815.59
2022-08-19T10:59:40.854Z,100826.03
2022-08-19T11:01:47.893Z,100815.75
2022-08-19T11:03:55.083Z,100817.59
2022-08-19T11:06:02.563Z,100818.28
2022-08-19T11:08:17.636Z,100821.66
2022-08-19T11:10:29.044Z,100816.47
2022-08-19T11:12:33.607Z,100811.94
2022-08-19T11:14:37.759Z,100814.63
2022-08-19T11:16:41.929Z,100811.91
2022-08-19T11:18:47.830Z,100814.44
2022-08-19T11:20:51.451Z,100804.78
2022-08-19T11:22:55.792Z,100808.47
2022-08-19T11:24:59.493Z,100790.28
2022-08-19T11:27:06.951Z,100795.84
2022-08-19T11:29:13.891Z,100791.94
2022-08-19T11:31:20.070Z,100789.84
2022-08-19T11:33:23.564Z,100791.41
2022-08-19T11:35:27.131Z,100792.59
2022-08-19T11:37:30.761Z,100794.66
2022-08-19T11:39:36.755Z,100791.47
2022-08-19T11:41:40.298Z,100794.56
2022-08-19T11:43:45.505Z,100797.63
2022-08-19T11:45:49.967Z,100791.94
2022-08-19T11:47:54.053Z,100790.63
2022-08-19T11:49:57.668Z,100792.84
2022-08-19T11:52:01.281Z,100784.75
2022-08-19T11:54:07.938Z,100791.66
2022-08-19T11:56:12.065Z,100788.56
2022-08-19T11:58:18.843Z,100786.00
2022-08-19T12:00:24.472Z,100773.34
2022-08-19T12:02:28.344Z,100789.63
2022-08-19T12:04:31.872Z,100799.59
2022-08-19T12:06:35.965Z,100804.50
2022-08-19T12:08:39.667Z,100789.44
2022-08-19T12:10:43.341Z,100785.72
2022-08-19T12:12:56.396Z,100785.75
2022-08-19T12:15:03.321Z,100778.94
2022-08-19T12:17:10.188Z,100783.66
2022-08-19T12:19:13.973Z,100781.84
2022-08-19T12:21:29.032Z,100771.25
2022-08-19T12:23:32.710Z,100778.53
2022-08-19T12:25:36.429Z,100780.22
2022-08-19T12:27:41.689Z,100768.28
2022-08-19T12:29:46.625Z,100775.19
2022-08-19T12:31:50.212Z,100770.13
2022-08-19T12:33:55.536Z,100787.09
2022-08-19T12:36:03.446Z,100783.69
2022-08-19T12:38:07.931Z,100781.47
2022-08-19T12:40:13.696Z,100784.06
2022-08-19T12:42:18.169Z,100781.81
2022-08-19T12:44:29.530Z,100796.06
2022-08-19T12:46:35.673Z,100785.63
2022-08-19T12:48:42.956Z,100779.41
2022-08-19T12:50:48.397Z,100786.59
2022-08-19T12:52:52.265Z,100783.13
2022-08-19T12:54:57.947Z,100785.69
2022-08-19T12:57:01.870Z,100786.59
2022-08-19T12:59:06.965Z,100777.69
2022-08-19T13:01:13.113Z,100788.84
2022-08-19T13:03:17.459Z,100773.56
2022-08-19T13:05:24.027Z,100776.25
2022-08-19T13:07:29.314Z,100774.56
2022-08-19T13:09:35.670Z,100777.91
2022-08-19T13:11:40.286Z,100779.44
2022-08-19T13:13:45.292Z,100776.09
2022-08-19T13:15:48.826Z,100781.13
2022-08-19T13:17:54.402Z,100787.97
2022-08-19T13:19:58.372Z,100782.72
2022-08-19T13:22:01.923Z,100780.66
2022-08-19T13:24:07.557Z,100788.38
2022-08-19T13:26:12.591Z,100794.63
2022-08-19T13:28:16.208Z,100792.44
2022-08-19T13:30:38.957Z,100778.72
2022-08-19T13:32:59.536Z,100772.72
2022-08-19T13:35:03.181Z,100772.75
2022-08-19T13:37:07.377Z,100769.59
2022-08-19T13:39:12.537Z,100759.50
2022-08-19T13:41:16.182Z,100763.38
2022-08-19T13:43:23.355Z,100760.22
2022-08-19T13:45:30.317Z,100769.81
2022-08-19T13:47:35.724Z,100768.97
2022-08-19T13:49:39.240Z,100758.19
2022-08-19T13:51:43.078Z,100757.53
2022-08-19T13:53:48.186Z,100764.09
2022-08-19T13:55:54.751Z,100762.94
2022-08-19T13:58:01.286Z,100766.78
2022-08-19T14:00:06.829Z,100777.03
2022-08-19T14:02:11.937Z,100760.06
2022-08-19T14:04:15.635Z,100764.25
2022-08-19T14:06:19.519Z,100771.16
2022-08-19T14:08:23.432Z,100778.03
2022-08-19T14:10:29.438Z,100770.31
2022-08-19T14:12:34.924Z,100777.91
2022-08-19T14:14:39.549Z,100768.78
2022-08-19T14:16:43.934Z,100768.13
2022-08-19T14:18:47.480Z,100766.97
2022-08-19T14:20:51.147Z,100769.13
2022-08-19T14:22:55.870Z,100771.47
2022-08-19T14:25:00.120Z,100767.78
2022-08-19T14:27:04.505Z,100776.03
2022-08-19T14:29:10.158Z,100778.53
2022-08-19T14:31:17.735Z,100771.09
2022-08-19T14:33:21.412Z,100787.53
2022-08-19T14:35:35.729Z,100783.47
2022-08-19T14:37:45.366Z,100796.31
2022-08-19T14:39:49.573Z,100798.28
2022-08-19T14:41:53.476Z,100800.31
2022-08-19T14:43:57.358Z,100796.50
2022-08-19T14:46:02.998Z,100799.38
2022-08-19T14:48:07.572Z,100801.03
2022-08-19T14:50:18.383Z,100805.34
2022-08-19T14:52:22.321Z,100829.44
2022-08-19T14:54:26.166Z,100845.88
2022-08-19T14:56:33.999Z,100845.63
2022-08-19T14:58:39.132Z,100849.81
2022-08-19T15:00:42.925Z,100847.31
2022-08-19T15:02:48.029Z,100841.81
2022-08-19T15:04:58.285Z,100834.06
2022-08-19T15:07:05.615Z,100829.66
2022-08-19T15:09:09.139Z,100827.94
2022-08-19T15:11:15.630Z,100822.66
2022-08-19T15:13:20.004Z,100818.09
2022-08-19T15:15:23.939Z,100825.94
2022-08-19T15:17:45.895Z,100829.03
2022-08-19T15:19:51.484Z,100839.28
2022-08-19T15:21:55.964Z,100837.75
2022-08-19T15:24:01.673Z,100835.78
2022-08-19T15:26:06.503Z,100822.19
2022-08-19T15:28:12.246Z,100830.41
2022-08-19T15:30:22.629Z,100826.72
2022-08-19T15:32:27.589Z,100821.06
2022-08-19T15:34:32.595Z,100814.22
2022-08-19T15:36:38.097Z,100808.53
2022-08-19T15:38:46.093Z,100820.50
2022-08-19T15:40:50.712Z,100816.41
2022-08-19T15:42:54.839Z,100815.53
2022-08-19T15:45:01.063Z,100818.53
2022-08-19T15:47:06.103Z,100813.09
2022-08-19T15:49:11.189Z,100826.81
2022-08-19T15:51:14.872Z,100824.28
2022-08-19T15:53:19.796Z,100836.16
2022-08-19T15:55:33.013Z,100842.84
2022-08-19T15:57:55.186Z,100847.66
2022-08-19T16:00:16.283Z,100858.06
2022-08-19T16:02:43.540Z,100838.00
2022-08-19T16:05:06.795Z,100833.75
2022-08-19T16:07:10.532Z,100846.50
2022-08-19T16:09:17.164Z,100844.81
2022-08-19T16:11:22.973Z,100848.47
2022-08-19T16:13:26.825Z,100855.00
2022-08-19T16:15:32.423Z,100841.06
2022-08-19T16:17:36.371Z,100838.69
2022-08-19T16:19:40.769Z,100844.03
2022-08-19T16:21:45.426Z,100836.66
2022-08-19T16:23:50.499Z,100842.03
2022-08-19T16:25:55.591Z,100839.34
2022-08-19T16:28:07.760Z,100841.72
2022-08-19T16:30:12.558Z,100842.59
2022-08-19T16:32:16.510Z,100847.09
2022-08-19T16:34:20.009Z,100840.06
2022-08-19T16:36:24.979Z,100844.56
2022-08-19T16:38:29.495Z,100852.19
2022-08-19T16:40:33.050Z,100847.03
2022-08-19T16:42:38.073Z,100837.84
2022-08-19T16:44:45.225Z,100852.94
2022-08-19T16:46:57.386Z,100847.91
2022-08-19T16:49:02.843Z,100846.09
2022-08-19T16:51:09.684Z,100847.41
2022-08-19T16:53:13.344Z,100847.00
2022-08-19T16:55:17.236Z,100848.03
2022-08-19T16:57:21.037Z,100857.06
2022-08-19T16:59:26.126Z,100841.13
2022-08-19T17:01:30.291Z,100842.09
2022-08-19T17:03:36.884Z,100854.81
2022-08-19T17:05:44.345Z,100849.16
2022-08-19T17:07:47.947Z,100852.94
2022-08-19T17:09:52.601Z,100849.94
2022-08-19T17:11:56.367Z,100850.09
2022-08-19T17:14:00.024Z,100850.56
2022-08-19T17:16:05.707Z,100858.75
2022-08-19T17:18:11.664Z,100856.50
2022-08-19T17:20:15.291Z,100855.13
2022-08-19T17:22:18.911Z,100853.88
2022-08-19T17:24:22.544Z,100857.69
2022-08-19T17:26:27.511Z,100858.84
2022-08-19T17:28:31.420Z,100855.47
2022-08-19T17:30:35.447Z,100862.13
2022-08-19T17:32:40.722Z,100862.69
2022-08-19T17:34:44.363Z,100864.81
2022-08-19T17:36:47.908Z,100860.88
2022-08-19T17:38:52.091Z,100861.16
2022-08-19T17:41:04.787Z,100865.00
2022-08-19T17:43:08.733Z,100855.53
2022-08-19T17:45:13.411Z,100862.19
2022-08-19T17:47:17.045Z,100862.34
2022-08-19T17:49:22.218Z,100864.03
2022-08-19T17:51:40.591Z,100866.00
2022-08-19T17:53:46.026Z,100862.34
2022-08-19T17:55:49.771Z,100864.72
2022-08-19T17:57:53.497Z,100868.94
2022-08-19T17:59:58.824Z,100864.44
2022-08-19T18:02:03.261Z,100871.78
2022-08-19T18:04:10.187Z,100874.75
2022-08-19T18:06:16.851Z,100880.53
2022-08-19T18:08:20.669Z,100875.78
2022-08-19T18:10:32.057Z,100867.16
2022-08-19T18:12:39.087Z,100871.13
2022-08-19T18:14:43.267Z,100877.63
2022-08-19T18:16:47.120Z,100880.44
2022-08-19T18:18:50.688Z,100870.03
2022-08-19T18:20:54.422Z,100876.38
2022-08-19T18:23:45.469Z,100874.56
2022-08-19T18:25:26.902Z,100872.84
2022-08-19T18:27:30.710Z,100871.16
2022-08-19T18:29:38.527Z,100875.69
2022-08-19T18:31:43.838Z,100866.78
2022-08-19T18:33:52.827Z,100879.34
2022-08-19T18:35:56.943Z,100893.88
2022-08-19T18:38:23.826Z,100881.06
2022-08-19T18:40:46.347Z,100888.53
2022-08-19T18:43:19.013Z,100889.81
2022-08-19T18:45:43.620Z,100904.19
2022-08-19T18:48:04.754Z,100914.91
2022-08-19T18:50:10.044Z,100912.66
2022-08-19T18:52:15.501Z,100915.88
2022-08-19T18:54:21.259Z,100922.78
2022-08-19T18:56:29.466Z,100925.19
2022-08-19T18:58:34.456Z,100916.00
2022-08-19T19:00:38.073Z,100907.66
2022-08-19T19:02:41.783Z,100901.72
2022-08-19T19:04:45.956Z,100904.69
2022-08-19T19:06:50.187Z,100908.50
2022-08-19T19:08:55.175Z,100906.25
2022-08-19T19:11:05.317Z,100909.16
2022-08-19T19:13:08.796Z,100908.75
2022-08-19T19:15:12.607Z,100907.34
2022-08-19T19:17:16.918Z,100906.06
2022-08-19T19:19:20.759Z,100909.00
2022-08-19T19:21:31.908Z,100909.13
2022-08-19T19:23:40.949Z,100909.41
2022-08-19T19:25:50.713Z,100909.69
2022-08-19T19:27:56.332Z,100911.50
2022-08-19T19:30:00.163Z,100914.31
2022-08-19T19:32:04.219Z,100919.81
2022-08-19T19:34:29.257Z,100911.19
2022-08-19T19:36:32.000Z,100917.56
2022-08-19T19:38:36.118Z,100923.16
2022-08-19T19:40:40.018Z,100921.59
2022-08-19T19:42:43.840Z,100928.78
2022-08-19T19:44:50.598Z,100926.53
2022-08-19T19:46:57.960Z,100929.34
2022-08-19T19:49:02.216Z,100925.94
2022-08-19T19:51:06.428Z,100922.53
2022-08-19T19:53:10.401Z,100919.16
2022-08-19T19:55:18.660Z,100930.84
2022-08-19T19:57:26.923Z,100926.47
2022-08-19T19:59:30.508Z,100932.81
2022-08-19T20:01:35.835Z,100947.84
2022-08-19T20:03:40.580Z,100942.50
2022-08-19T20:05:44.282Z,100940.09
2022-08-19T20:08:05.259Z,100946.44
2022-08-19T20:10:09.606Z,100946.72
2022-08-19T20:12:13.546Z,100945.28
2022-08-19T20:14:20.323Z,100941.19
2022-08-19T20:16:25.613Z,100942.16
2022-08-19T20:18:30.778Z,100947.63
2022-08-19T20:20:34.477Z,100940.72
2022-08-19T20:22:40.305Z,100942.69
2022-08-19T20:24:45.032Z,100932.13
2022-08-19T20:26:53.420Z,100926.94
2022-08-19T20:29:07.262Z,100926.94
2022-08-19T20:31:17.843Z,100925.22
2022-08-19T20:33:21.593Z,100923.53
2022-08-19T20:35:26.979Z,100925.22
2022-08-19T20:37:30.643Z,100923.66
2022-08-19T20:39:34.700Z,100926.56
2022-08-19T20:41:39.424Z,100922.34
2022-08-19T20:43:43.434Z,100925.97
2022-08-19T20:45:47.259Z,100925.28
2022-08-19T20:47:50.828Z,100928.19
2022-08-19T20:49:54.535Z,100932.97
2022-08-19T20:51:59.616Z,100933.22
2022-08-19T20:54:03.156Z,100931.53
2022-08-19T20:56:09.431Z,100926.19
2022-08-19T20:58:20.638Z,100929.00
2022-08-19T21:00:24.156Z,100927.28
2022-08-19T21:02:27.981Z,100917.72
2022-08-19T21:04:31.784Z,100922.22
2022-08-19T21:06:35.413Z,100924.16
2022-08-19T21:08:41.717Z,100921.63
2022-08-19T21:10:45.859Z,100919.09
2022-08-19T21:12:49.512Z,100916.41
2022-08-19T21:14:53.329Z,100917.53
2022-08-19T21:16:57.063Z,100909.63
2022-08-19T21:19:00.666Z,100909.78
2022-08-19T21:21:04.896Z,100918.63
2022-08-19T21:23:11.191Z,100915.13
2022-08-19T21:25:18.260Z,100913.56
2022-08-19T21:27:21.885Z,100911.84
2022-08-19T21:29:25.739Z,100923.50
2022-08-19T21:31:29.472Z,100918.44
2022-08-19T21:33:33.264Z,100920.38
2022-08-19T21:35:37.414Z,100925.72
2022-08-19T21:37:40.979Z,100913.34
2022-08-19T21:39:44.738Z,100905.47
2022-08-19T21:41:50.036Z,100905.47
2022-08-19T21:43:54.117Z,100906.56
2022-08-19T21:45:57.619Z,100896.84
2022-08-19T21:48:01.324Z,100909.25
2022-08-19T21:50:06.536Z,100911.19
2022-08-19T21:52:10.856Z,100907.69
2022-08-19T21:54:14.470Z,100914.81
2022-08-19T21:56:18.153Z,100915.94
2022-08-19T21:58:30.134Z,100918.63
2022-08-19T22:00:35.560Z,100907.06
2022-08-19T22:02:40.120Z,100907.94
2022-08-19T22:04:43.905Z,100907.06
2022-08-19T22:06:47.712Z,100906.25
2022-08-19T22:08:51.434Z,100909.03
2022-08-19T22:10:55.402Z,100909.03
2022-08-19T22:13:00.498Z,100913.53
2022-08-19T22:15:07.338Z,100910.16
2022-08-19T22:17:10.978Z,100905.78
2022-08-19T22:19:14.681Z,100907.72
2022-08-19T22:21:21.274Z,100914.88
2022-08-19T22:23:44.517Z,100916.84
2022-08-19T22:25:48.665Z,100910.78
2022-08-19T22:27:52.617Z,100909.06
2022-08-19T22:30:00.365Z,100910.16
2022-08-19T22:32:26.166Z,100906.06
2022-08-19T22:34:30.206Z,100910.81
2022-08-19T22:36:34.383Z,100907.41
2022-08-19T22:38:38.622Z,100902.09
2022-08-19T22:40:48.595Z,100906.72
2022-08-19T22:43:00.271Z,100889.97
2022-08-19T22:45:04.133Z,100893.72
2022-08-19T22:47:10.259Z,100888.66
2022-08-19T22:49:16.348Z,100885.41
2022-08-19T22:51:37.146Z,100889.88
2022-08-19T22:53:44.114Z,100892.41
2022-08-19T22:55:47.752Z,100882.75
2022-08-19T22:57:51.355Z,100890.00
2022-08-19T22:59:56.150Z,100890.97
2022-08-19T23:02:02.620Z,100888.69
2022-08-19T23:04:07.891Z,100883.50
2022-08-19T23:06:12.535Z,100888.09
2022-08-19T23:08:16.123Z,100891.63
2022-08-19T23:10:27.134Z,100882.75
2022-08-19T23:12:34.875Z,100882.75
2022-08-19T23:14:38.567Z,100879.13
2022-08-19T23:16:42.894Z,100882.50
2022-08-19T23:18:46.771Z,100878.03
2022-08-19T23:20:53.984Z,100877.16
2022-08-19T23:22:58.688Z,100873.53
2022-08-19T23:25:03.878Z,100875.22
2022-08-19T23:27:24.840Z,100869.91
2022-08-19T23:29:46.039Z,100871.00
2022-08-19T23:31:52.135Z,100869.91
2022-08-19T23:33:55.650Z,100865.66
2022-08-19T23:36:03.062Z,100871.00
2022-08-19T23:38:07.713Z,100867.34
2022-08-19T23:40:12.063Z,100864.69
2022-08-19T23:42:15.753Z,100869.06
2022-08-19T23:44:19.464Z,100866.97
2022-08-19T23:46:27.759Z,100870.50
2022-08-19T23:48:33.156Z,100866.00
2022-08-19T23:50:37.654Z,100866.00
2022-08-19T23:52:47.692Z,100860.41
2022-08-19T23:54:51.379Z,100853.97
2022-08-19T23:56:55.034Z,100850.44
2022-08-19T23:58:59.455Z,100839.78
